createdAt,value
2022-09-03T00:02:17.058Z,68.36
2022-09-03T00:04:57.537Z,68.44
2022-09-03T00:07:35.615Z,68.66
2022-09-03T00:10:08.912Z,68.80
2022-09-03T00:12:46.218Z,68.93
2022-09-03T00:15:18.204Z,69.04
2022-09-03T00:17:51.826Z,69.21
2022-09-03T00:20:25.461Z,69.22
2022-09-03T00:22:58.035Z,69.29
2022-09-03T00:25:34.003Z,69.44
2022-09-03T00:28:15.480Z,69.58
2022-09-03T00:30:49.044Z,69.73
2022-09-03T00:33:24.239Z,69.80
2022-09-03T00:36:00.853Z,69.95
2022-09-03T00:38:32.764Z,69.94
2022-09-03T00:41:11.948Z,70.14
2022-09-03T00:43:57.565Z,70.32
2022-09-03T00:46:33.541Z,70.25
2022-09-03T00:49:23.530Z,70.29
2022-09-03T00:52:03.201Z,70.72
2022-09-03T00:54:40.648Z,70.66
2022-09-03T00:57:25.974Z,70.73
2022-09-03T01:00:06.497Z,70.81
2022-09-03T01:02:49.424Z,70.84
2022-09-03T01:05:30.729Z,70.92
2022-09-03T01:08:17.048Z,70.90
2022-09-03T01:10:56.241Z,71.12
2022-09-03T01:13:34.853Z,71.20
2022-09-03T01:16:19.751Z,71.21
2022-09-03T01:18:59.669Z,71.19
2022-09-03T01:21:48.209Z,71.33
2022-09-03T01:24:47.725Z,71.42
2022-09-03T01:27:30.361Z,71.42
2022-09-03T01:30:07.112Z,71.63
2022-09-03T01:32:46.514Z,71.66
2022-09-03T01:35:27.185Z,71.83
2022-09-03T01:38:15.383Z,71.78
2022-09-03T01:40:53.779Z,71.94
2022-09-03T01:43:45.379Z,71.75
2022-09-03T01:46:25.525Z,71.87
2022-09-03T01:49:03.570Z,71.89
2022-09-03T01:51:34.723Z,72.01
2022-09-03T01:54:23.800Z,72.10
2022-09-03T01:57:35.183Z,72.13
2022-09-03T02:00:10.571Z,72.34
2022-09-03T02:02:44.170Z,72.39
2022-09-03T02:05:16.304Z,72.37
2022-09-03T02:07:48.537Z,72.29
2022-09-03T02:10:21.883Z,72.29
2022-09-03T02:12:56.467Z,72.39
2022-09-03T02:15:28.759Z,72.39
2022-09-03T02:18:06.368Z,72.52
2022-09-03T02:20:36.721Z,72.45
2022-09-03T02:23:06.540Z,72.49
2022-09-03T02:25:40.859Z,72.51
2022-09-03T02:28:17.204Z,72.62
2022-09-03T02:30:48.501Z,72.57
2022-09-03T02:33:21.109Z,72.76
2022-09-03T02:35:50.871Z,72.60
2022-09-03T02:38:23.107Z,72.80
2022-09-03T02:40:54.604Z,72.90
2022-09-03T02:43:30.909Z,72.76
2022-09-03T02:46:05.957Z,72.85
2022-09-03T02:48:38.861Z,73.03
2022-09-03T02:51:14.364Z,72.92
2022-09-03T02:53:44.724Z,73.16
2022-09-03T02:56:15.084Z,73.21
2022-09-03T02:58:44.828Z,73.15
2022-09-03T03:01:19.712Z,73.35
2022-09-03T03:03:56.701Z,73.33
2022-09-03T03:06:26.688Z,73.24
2022-09-03T03:08:57.233Z,73.36
2022-09-03T03:11:27.530Z,73.58
2022-09-03T03:13:57.265Z,73.54
2022-09-03T03:16:27.095Z,73.73
2022-09-03T03:19:00.324Z,73.82
2022-09-03T03:21:31.020Z,73.72
2022-09-03T03:24:00.787Z,73.91
2022-09-03T03:26:30.929Z,74.00
2022-09-03T03:29:04.782Z,74.01
2022-09-03T03:31:36.161Z,74.03
2022-09-03T03:34:08.591Z,74.24
2022-09-03T03:36:39.218Z,74.25
2022-09-03T03:39:10.629Z,74.29
2022-09-03T03:41:41.255Z,74.27
2022-09-03T03:44:11.708Z,74.34
2022-09-03T03:46:42.940Z,74.46
2022-09-03T03:49:15.280Z,74.43
2022-09-03T03:51:45.015Z,74.29
2022-09-03T03:54:17.551Z,74.35
2022-09-03T03:56:55.812Z,74.52
2022-09-03T03:59:25.790Z,74.50
2022-09-03T04:01:57.924Z,74.50
2022-09-03T04:04:30.344Z,74.66
2022-09-03T04:07:00.107Z,74.65
2022-09-03T04:09:29.849Z,74.70
2022-09-03T04:12:00.092Z,74.65
2022-09-03T04:14:30.562Z,74.71
2022-09-03T04:17:00.433Z,74.88
2022-09-03T04:19:33.164Z,74.92
2022-09-03T04:22:03.277Z,74.87
2022-09-03T04:24:33.052Z,74.97
2022-09-03T04:27:02.805Z,74.92
2022-09-03T04:29:32.728Z,74.95
2022-09-03T04:32:23.654Z,75.07
2022-09-03T04:34:56.032Z,75.15
2022-09-03T04:37:25.866Z,75.07
2022-09-03T04:39:55.645Z,75.08
2022-09-03T04:42:25.418Z,75.07
2022-09-03T04:44:55.204Z,75.17
2022-09-03T04:47:24.912Z,75.24
2022-09-03T04:49:57.923Z,75.22
2022-09-03T04:52:30.298Z,75.29
2022-09-03T04:55:00.231Z,75.40
2022-09-03T04:57:34.542Z,75.32
2022-09-03T05:00:04.338Z,75.47
2022-09-03T05:02:34.128Z,75.43
2022-09-03T05:05:06.947Z,75.58
2022-09-03T05:07:39.059Z,75.61
2022-09-03T05:10:13.138Z,75.80
2022-09-03T05:12:43.296Z,75.78
2022-09-03T05:15:13.327Z,75.64
2022-09-03T05:17:43.060Z,75.77
2022-09-03T05:20:15.621Z,75.79
2022-09-03T05:22:45.401Z,75.96
2022-09-03T05:25:15.239Z,75.97
2022-09-03T05:27:45.260Z,76.01
2022-09-03T05:30:15.597Z,75.90
2022-09-03T05:32:45.528Z,76.07
2022-09-03T05:35:19.001Z,76.13
2022-09-03T05:37:51.042Z,76.01
2022-09-03T05:40:21.204Z,76.06
2022-09-03T05:42:51.348Z,76.32
2022-09-03T05:45:21.420Z,76.16
2022-09-03T05:47:51.191Z,76.32
2022-09-03T05:50:23.568Z,76.28
2022-09-03T05:52:53.366Z,76.16
2022-09-03T05:55:23.154Z,76.21
2022-09-03T05:57:55.081Z,76.31
2022-09-03T06:00:24.865Z,76.20
2022-09-03T06:02:55.507Z,76.38
2022-09-03T06:05:27.929Z,76.41
2022-09-03T06:07:57.707Z,76.39
2022-09-03T06:10:34.410Z,76.36
2022-09-03T06:13:08.587Z,76.21
2022-09-03T06:15:38.388Z,76.44
2022-09-03T06:18:08.623Z,76.21
2022-09-03T06:20:41.123Z,76.21
2022-09-03T06:23:10.851Z,76.03
2022-09-03T06:25:40.583Z,76.11
2022-09-03T06:28:12.064Z,76.07
2022-09-03T06:30:42.067Z,75.98
2022-09-03T06:33:11.952Z,75.97
2022-09-03T06:35:44.405Z,76.01
2022-09-03T06:38:15.621Z,76.06
2022-09-03T06:40:49.974Z,76.06
2022-09-03T06:43:19.985Z,76.00
2022-09-03T06:45:56.902Z,75.72
2022-09-03T06:48:26.977Z,75.61
2022-09-03T06:51:01.440Z,75.69
2022-09-03T06:53:32.746Z,75.58
2022-09-03T06:56:04.493Z,75.57
2022-09-03T06:58:36.128Z,75.47
2022-09-03T07:01:09.723Z,75.45
2022-09-03T07:03:40.952Z,75.30
2022-09-03T07:06:15.584Z,75.09
2022-09-03T07:08:46.446Z,74.83
2022-09-03T07:11:19.613Z,74.66
2022-09-03T07:13:51.761Z,74.40
2022-09-03T07:16:23.603Z,73.95
2022-09-03T07:18:54.186Z,73.59
2022-09-03T07:21:28.330Z,73.24
2022-09-03T07:24:00.186Z,72.83
2022-09-03T07:26:32.729Z,72.69
2022-09-03T07:29:03.403Z,72.33
2022-09-03T07:31:35.663Z,72.23
2022-09-03T07:34:10.072Z,71.97
2022-09-03T07:36:44.457Z,71.60
2022-09-03T07:39:15.756Z,71.07
2022-09-03T07:41:46.140Z,70.89
2022-09-03T07:44:19.570Z,70.23
2022-09-03T07:46:51.556Z,69.92
2022-09-03T07:49:23.253Z,69.75
2022-09-03T07:51:55.731Z,69.59
2022-09-03T07:54:27.491Z,69.23
2022-09-03T07:56:57.526Z,69.14
2022-09-03T07:59:27.312Z,68.74
2022-09-03T08:01:57.874Z,68.61
2022-09-03T08:04:27.578Z,68.40
2022-09-03T08:07:00.606Z,67.76
2022-09-03T08:09:30.352Z,67.39
2022-09-03T08:12:00.062Z,67.19
2022-09-03T08:14:30.550Z,67.03
2022-09-03T08:17:00.503Z,66.41
2022-09-03T08:19:30.220Z,66.13
2022-09-03T08:22:03.131Z,66.07
2022-09-03T08:24:34.097Z,65.95
2022-09-03T08:27:03.829Z,66.03
2022-09-03T08:29:33.589Z,65.76
2022-09-03T08:32:05.329Z,65.77
2022-09-03T08:34:35.332Z,65.50
2022-09-03T08:37:10.055Z,65.59
2022-09-03T08:39:39.809Z,65.36
2022-09-03T08:42:46.529Z,65.20
2022-09-03T08:45:19.618Z,65.15
2022-09-03T08:47:52.831Z,64.73
2022-09-03T08:50:28.811Z,64.55
2022-09-03T08:53:05.528Z,64.55
2022-09-03T08:55:42.819Z,64.36
2022-09-03T08:58:16.438Z,64.38
2022-09-03T09:00:52.580Z,64.35
2022-09-03T09:03:38.165Z,63.99
2022-09-03T09:06:15.359Z,63.99
2022-09-03T09:09:00.071Z,64.02
2022-09-03T09:11:43.579Z,63.93
2022-09-03T09:14:22.293Z,63.62
2022-09-03T09:17:04.871Z,63.41
2022-09-03T09:19:49.580Z,63.36
2022-09-03T09:22:29.987Z,63.32
2022-09-03T09:25:09.141Z,63.08
2022-09-03T09:27:38.863Z,63.16
2022-09-03T09:30:10.187Z,63.01
2022-09-03T09:32:40.324Z,62.97
2022-09-03T09:35:12.386Z,62.72
2022-09-03T09:37:51.045Z,62.64
2022-09-03T09:40:35.158Z,62.34
2022-09-03T09:43:16.279Z,62.11
2022-09-03T09:45:48.540Z,62.08
2022-09-03T09:48:26.603Z,61.95
2022-09-03T09:51:07.927Z,61.95
2022-09-03T09:53:38.007Z,61.88
2022-09-03T09:56:11.285Z,61.48
2022-09-03T09:58:41.012Z,61.51
2022-09-03T10:01:15.930Z,61.57
2022-09-03T10:03:55.551Z,61.59
2022-09-03T10:06:39.792Z,61.45
2022-09-03T10:09:11.576Z,61.55
2022-09-03T10:11:47.513Z,61.34
2022-09-03T10:14:25.961Z,61.32
2022-09-03T10:17:04.092Z,61.16
2022-09-03T10:19:43.576Z,61.22
2022-09-03T10:22:20.828Z,61.14
2022-09-03T10:24:59.938Z,61.00
2022-09-03T10:27:32.497Z,60.90
2022-09-03T10:30:02.907Z,60.58
2022-09-03T10:32:48.367Z,60.36
2022-09-03T10:35:28.472Z,60.38
2022-09-03T10:38:07.697Z,60.19
2022-09-03T10:40:43.913Z,60.29
2022-09-03T10:43:32.763Z,60.09
2022-09-03T10:46:06.575Z,60.17
2022-09-03T10:48:51.907Z,60.37
2022-09-03T10:51:26.962Z,60.20
2022-09-03T10:54:26.604Z,59.83
2022-09-03T10:57:06.415Z,59.58
2022-09-03T10:59:54.035Z,59.92
2022-09-03T11:02:42.719Z,59.65
2022-09-03T11:05:18.308Z,59.49
2022-09-03T11:07:53.384Z,59.12
2022-09-03T11:10:30.934Z,58.96
2022-09-03T11:13:09.248Z,58.64
2022-09-03T11:15:46.109Z,58.27
2022-09-03T11:18:23.080Z,58.26
2022-09-03T11:20:56.478Z,57.86
2022-09-03T11:23:30.440Z,57.41
2022-09-03T11:26:05.184Z,57.45
2022-09-03T11:28:45.570Z,57.33
2022-09-03T11:31:26.109Z,57.12
2022-09-03T11:34:02.054Z,57.13
2022-09-03T11:36:34.423Z,56.83
2022-09-03T11:39:04.475Z,56.30
2022-09-03T11:41:38.544Z,56.06
2022-09-03T11:44:20.428Z,56.04
2022-09-03T11:47:00.342Z,55.83
2022-09-03T11:49:33.048Z,55.75
2022-09-03T11:52:04.506Z,55.55
2022-09-03T11:54:36.004Z,55.45
2022-09-03T11:57:16.058Z,55.30
2022-09-03T11:59:47.304Z,55.09
2022-09-03T12:02:28.866Z,54.78
2022-09-03T12:05:19.672Z,54.44
2022-09-03T12:08:08.813Z,54.27
2022-09-03T12:10:49.729Z,54.28
2022-09-03T12:13:43.403Z,53.93
2022-09-03T12:16:55.080Z,53.94
2022-09-03T12:19:35.129Z,53.55
2022-09-03T12:22:05.647Z,53.19
2022-09-03T12:24:38.296Z,53.23
2022-09-03T12:27:10.046Z,52.94
2022-09-03T12:29:40.870Z,52.69
2022-09-03T12:32:14.512Z,52.57
2022-09-03T12:34:47.365Z,52.49
2022-09-03T12:40:21.734Z,52.18
2022-09-03T12:42:51.815Z,52.17
2022-09-03T12:45:24.515Z,51.97
2022-09-03T12:47:54.703Z,51.91
2022-09-03T12:50:27.772Z,51.94
2022-09-03T12:53:01.989Z,51.78
2022-09-03T12:55:40.523Z,51.79
2022-09-03T12:58:14.918Z,51.72
2022-09-03T13:00:50.073Z,51.51
2022-09-03T13:03:23.653Z,51.50
2022-09-03T13:06:01.505Z,51.57
2022-09-03T13:08:35.243Z,51.15
2022-09-03T13:11:07.873Z,51.32
2022-09-03T13:13:40.898Z,50.96
2022-09-03T13:16:32.153Z,50.70
2022-09-03T13:19:13.109Z,50.52
2022-09-03T13:21:52.500Z,50.26
2022-09-03T13:24:48.854Z,50.11
2022-09-03T13:27:26.671Z,50.07
2022-09-03T13:30:07.740Z,50.17
2022-09-03T13:32:51.261Z,50.14
2022-09-03T13:35:32.504Z,50.25
2022-09-03T13:38:12.205Z,50.25
2022-09-03T13:40:50.043Z,50.08
2022-09-03T13:43:30.221Z,50.04
2022-09-03T13:46:04.868Z,50.13
2022-09-03T13:48:52.248Z,50.26
2022-09-03T13:51:29.937Z,50.13
2022-09-03T13:54:36.401Z,50.22
2022-09-03T13:57:11.999Z,50.33
2022-09-03T13:59:50.217Z,50.27
2022-09-03T14:02:26.831Z,50.17
2022-09-03T14:05:08.039Z,49.92
2022-09-03T14:08:02.748Z,50.06
2022-09-03T14:10:48.909Z,49.95
2022-09-03T14:13:34.632Z,50.09
2022-09-03T14:16:10.438Z,50.21
2022-09-03T14:18:48.444Z,50.40
2022-09-03T14:21:24.348Z,50.63
2022-09-03T14:24:04.192Z,50.37
2022-09-03T14:26:40.027Z,50.48
2022-09-03T14:29:18.739Z,50.40
2022-09-03T14:32:07.026Z,50.43
2022-09-03T14:34:46.666Z,50.41
2022-09-03T14:37:31.625Z,50.51
2022-09-03T14:40:14.399Z,50.59
2022-09-03T14:43:04.148Z,50.58
2022-09-03T14:45:53.570Z,50.66
2022-09-03T14:48:40.743Z,50.66
2022-09-03T14:51:25.680Z,50.88
2022-09-03T14:54:32.031Z,50.88
2022-09-03T14:57:15.224Z,51.04
2022-09-03T15:00:08.215Z,50.91
2022-09-03T15:03:01.531Z,50.90
2022-09-03T15:05:53.065Z,51.06
2022-09-03T15:08:39.379Z,51.29
2022-09-03T15:11:20.476Z,51.24
2022-09-03T15:13:55.742Z,51.32
2022-09-03T15:16:43.989Z,51.29
2022-09-03T15:19:23.506Z,51.52
2022-09-03T15:22:09.870Z,51.54
2022-09-03T15:24:53.599Z,51.40
2022-09-03T15:27:48.502Z,51.60
2022-09-03T15:30:21.594Z,51.43
2022-09-03T15:33:06.591Z,51.60
2022-09-03T15:35:55.905Z,51.61
2022-09-03T15:38:42.448Z,51.57
2022-09-03T15:41:21.532Z,51.58
2022-09-03T15:43:53.933Z,51.56
2022-09-03T15:46:42.815Z,51.63
2022-09-03T15:49:27.733Z,51.69
2022-09-03T15:52:12.658Z,51.86
2022-09-03T15:54:49.535Z,51.93
2022-09-03T15:57:24.924Z,51.83
2022-09-03T16:00:02.110Z,51.93
2022-09-03T16:02:37.030Z,51.81
2022-09-03T16:05:16.511Z,51.94
2022-09-03T16:08:08.048Z,52.17
2022-09-03T16:10:57.310Z,52.31
2022-09-03T16:13:48.285Z,52.26
2022-09-03T16:16:22.885Z,52.45
2022-09-03T16:19:02.671Z,52.42
2022-09-03T16:21:42.112Z,52.47
2022-09-03T16:24:20.160Z,52.46
2022-09-03T16:26:57.513Z,52.55
2022-09-03T16:29:31.565Z,52.65
2022-09-03T16:32:13.736Z,52.91
2022-09-03T16:34:53.080Z,52.90
2022-09-03T16:37:35.441Z,53.07
2022-09-03T16:40:17.780Z,53.20
2022-09-03T16:42:54.057Z,53.20
2022-09-03T16:45:39.597Z,53.37
2022-09-03T16:48:27.783Z,53.43
2022-09-03T16:51:13.536Z,53.58
2022-09-03T16:54:07.636Z,53.65
2022-09-03T16:56:57.238Z,53.78
2022-09-03T16:59:50.266Z,54.12
2022-09-03T17:02:52.355Z,54.09
2022-09-03T17:05:57.846Z,54.26
2022-09-03T17:08:36.788Z,54.29
2022-09-03T17:11:18.379Z,54.33
2022-09-03T17:14:05.149Z,54.54
2022-09-03T17:16:48.689Z,54.58
2022-09-03T17:19:28.444Z,54.78
2022-09-03T17:22:19.498Z,54.81
2022-09-03T17:25:00.462Z,55.06
2022-09-03T17:27:54.715Z,55.05
2022-09-03T17:30:31.243Z,55.12
2022-09-03T17:33:35.311Z,55.27
2022-09-03T17:36:12.236Z,55.38
2022-09-03T17:39:10.056Z,55.54
2022-09-03T17:41:48.988Z,55.74
2022-09-03T17:44:31.155Z,55.57
2022-09-03T17:47:13.116Z,55.70
2022-09-03T17:49:50.604Z,55.99
2022-09-03T17:52:29.808Z,55.93
2022-09-03T17:55:03.449Z,56.08
2022-09-03T17:57:41.772Z,56.20
2022-09-03T18:00:23.882Z,56.43
2022-09-03T18:02:59.254Z,56.55
2022-09-03T18:05:32.777Z,56.56
2022-09-03T18:08:08.408Z,56.64
2022-09-03T18:10:48.323Z,56.97
2022-09-03T18:13:27.794Z,57.02
2022-09-03T18:18:35.023Z,57.44
2022-09-03T18:21:26.403Z,57.81
2022-09-03T18:24:18.627Z,57.88
2022-09-03T18:27:06.317Z,58.29
2022-09-03T18:29:55.480Z,58.40
2022-09-03T18:32:40.334Z,58.53
2022-09-03T18:35:23.704Z,58.79
2022-09-03T18:38:05.952Z,58.96
2022-09-03T18:40:56.166Z,59.15
2022-09-03T18:43:46.173Z,59.30
2022-09-03T18:47:47.778Z,59.18
2022-09-03T18:49:49.908Z,59.29
2022-09-03T18:52:37.596Z,59.22
2022-09-03T18:55:27.763Z,59.11
2022-09-03T18:58:22.970Z,59.32
2022-09-03T19:01:18.977Z,59.26
2022-09-03T19:04:16.339Z,59.37
2022-09-03T19:07:10.626Z,59.40
2022-09-03T19:10:04.208Z,59.35
2022-09-03T19:12:59.848Z,59.61
2022-09-03T19:15:46.981Z,59.61
2022-09-03T19:18:43.603Z,59.65
2022-09-03T19:21:35.090Z,59.62
2022-09-03T19:24:21.078Z,59.66
2022-09-03T19:27:31.225Z,59.69
2022-09-03T19:30:19.809Z,59.92
2022-09-03T19:33:17.102Z,59.97
2022-09-03T19:36:09.345Z,60.07
2022-09-03T19:39:05.187Z,59.95
2022-09-03T19:41:59.679Z,60.20
2022-09-03T19:44:57.514Z,60.15
2022-09-03T19:47:54.921Z,60.15
2022-09-03T19:50:40.361Z,60.37
2022-09-03T19:53:26.474Z,60.37
2022-09-03T19:56:10.781Z,60.40
2022-09-03T19:58:58.713Z,60.69
2022-09-03T20:01:48.431Z,60.72
2022-09-03T20:04:31.423Z,60.89
2022-09-03T20:07:15.784Z,61.02
2022-09-03T20:09:58.816Z,61.11
2022-09-03T20:12:32.552Z,61.12
2022-09-03T20:15:06.662Z,61.39
2022-09-03T20:17:45.812Z,61.56
2022-09-03T20:20:25.082Z,61.70
2022-09-03T20:23:00.891Z,61.79
2022-09-03T20:25:46.484Z,61.77
2022-09-03T20:28:28.357Z,61.95
2022-09-03T20:31:07.669Z,62.16
2022-09-03T20:33:50.691Z,62.27
2022-09-03T20:36:32.099Z,62.41
2022-09-03T20:39:16.438Z,62.35
2022-09-03T20:41:57.416Z,62.42
2022-09-03T20:44:48.660Z,62.69
2022-09-03T20:47:48.560Z,62.64
2022-09-03T20:50:32.748Z,62.64
2022-09-03T20:53:23.549Z,62.85
2022-09-03T20:55:56.224Z,63.01
2022-09-03T20:58:37.734Z,63.13
2022-09-03T21:01:10.211Z,63.08
2022-09-03T21:03:53.639Z,63.26
2022-09-03T21:06:34.350Z,63.08
2022-09-03T21:09:14.979Z,63.23
2022-09-03T21:11:54.831Z,63.31
2022-09-03T21:14:36.133Z,63.44
2022-09-03T21:17:27.416Z,63.40
2022-09-03T21:20:14.187Z,63.56
2022-09-03T21:22:52.919Z,63.52
2022-09-03T21:25:28.197Z,63.55
2022-09-03T21:28:02.524Z,63.43
2022-09-03T21:30:38.226Z,63.42
2022-09-03T21:33:12.463Z,63.35
2022-09-03T21:35:48.174Z,63.22
2022-09-03T21:38:23.537Z,63.30
2022-09-03T21:41:02.850Z,63.19
2022-09-03T21:43:38.213Z,63.12
2022-09-03T21:46:12.466Z,63.07
2022-09-03T21:48:50.109Z,63.17
2022-09-03T21:51:28.432Z,63.16
2022-09-03T21:54:04.084Z,63.02
2022-09-03T21:56:50.938Z,63.21
2022-09-03T21:59:35.646Z,62.97
2022-09-03T22:02:12.870Z,63.02
2022-09-03T22:04:42.595Z,63.09
2022-09-03T22:07:24.409Z,63.04
2022-09-03T22:10:02.267Z,63.03
2022-09-03T22:12:40.069Z,63.15
2022-09-03T22:15:14.665Z,63.06
2022-09-03T22:17:57.033Z,63.20
2022-09-03T22:20:28.176Z,63.23
2022-09-03T22:23:07.612Z,63.28
2022-09-03T22:25:44.530Z,63.30
2022-09-03T22:28:25.822Z,63.19
2022-09-03T22:31:03.775Z,63.32
2022-09-03T22:33:40.973Z,63.37
2022-09-03T22:36:16.984Z,63.39
2022-09-03T22:39:12.485Z,63.32
2022-09-03T22:42:04.578Z,63.58
2022-09-03T22:45:07.439Z,63.41
2022-09-03T22:47:56.151Z,63.56
2022-09-03T22:50:33.992Z,63.47
2022-09-03T22:53:12.887Z,63.63
2022-09-03T22:55:57.362Z,63.76
2022-09-03T22:58:32.738Z,63.71
2022-09-03T23:01:10.890Z,63.75
2022-09-03T23:03:48.477Z,63.72
2022-09-03T23:06:27.824Z,63.86
2022-09-03T23:09:03.896Z,63.83
2022-09-03T23:11:43.951Z,63.87
2022-09-03T23:14:18.076Z,64.01
2022-09-03T23:16:53.000Z,64.07
2022-09-03T23:19:33.598Z,64.26
2022-09-03T23:22:07.480Z,64.25
2022-09-03T23:24:41.643Z,64.25
2022-09-03T23:27:20.253Z,64.28
2022-09-03T23:29:54.120Z,64.43
2022-09-03T23:32:25.539Z,64.64
2022-09-03T23:35:00.525Z,64.66
2022-09-03T23:37:56.484Z,64.61
2022-09-03T23:40:37.432Z,64.83
2022-09-03T23:43:29.139Z,64.73
2022-09-03T23:46:08.113Z,64.92
2022-09-03T23:48:50.767Z,65.13
2022-09-03T23:51:29.304Z,65.18
2022-09-03T23:54:10.371Z,65.19
2022-09-03T23:56:55.152Z,65.19
2022-09-03T23:59:34.359Z,65.28
